createdAt,value
2023-02-15T00:00:15.619Z,9.00
2023-02-15T00:08:20.975Z,9.10
2023-02-15T00:16:29.080Z,9.20
2023-02-15T00:24:34.449Z,9.00
2023-02-15T00:32:42.489Z,9.00
2023-02-15T00:40:48.459Z,9.10
2023-02-15T00:48:56.702Z,9.10
2023-02-15T00:57:02.033Z,9.30
2023-02-15T01:05:10.437Z,9.20
2023-02-15T01:13:16.396Z,9.10
2023-02-15T01:21:26.466Z,9.20
2023-02-15T01:29:32.004Z,9.10
2023-02-15T01:37:40.561Z,9.20
2023-02-15T01:45:47.574Z,9.20
2023-02-15T01:54:01.333Z,9.20
2023-02-15T02:02:08.504Z,9.20
2023-02-15T02:10:18.806Z,9.30
2023-02-15T02:18:39.896Z,9.20
2023-02-15T02:27:20.043Z,9.30
2023-02-15T02:35:34.744Z,9.00
2023-02-15T02:43:48.613Z,8.90
2023-02-15T02:52:05.302Z,8.80
2023-02-15T03:00:13.631Z,8.80
2023-02-15T03:08:28.992Z,8.90
2023-02-15T03:16:35.180Z,8.90
2023-02-15T03:24:48.034Z,8.90
2023-02-15T03:32:54.871Z,8.90
2023-02-15T03:41:15.135Z,8.90
2023-02-15T03:49:25.775Z,9.00
2023-02-15T03:57:46.122Z,9.00
2023-02-15T04:05:51.776Z,9.00
2023-02-15T04:14:20.207Z,8.90
2023-02-15T04:22:37.979Z,9.00
2023-02-15T04:30:45.937Z,9.00
2023-02-15T04:38:51.280Z,8.90
2023-02-15T04:46:59.277Z,9.00
2023-02-15T04:55:05.238Z,9.00
2023-02-15T05:03:13.287Z,9.00
2023-02-15T05:11:18.668Z,8.90
2023-02-15T05:19:27.099Z,9.00
2023-02-15T05:27:44.757Z,8.90
2023-02-15T05:35:52.754Z,8.80
2023-02-15T05:43:59.905Z,8.70
2023-02-15T05:52:08.137Z,8.80
2023-02-15T06:00:15.605Z,8.80
2023-02-15T06:08:23.701Z,8.90
2023-02-15T06:16:29.056Z,8.90
2023-02-15T06:24:37.236Z,9.10
2023-02-15T06:32:42.641Z,9.20
2023-02-15T06:40:50.754Z,9.30
2023-02-15T06:48:56.256Z,9.50
2023-02-15T06:57:04.271Z,9.70
2023-02-15T07:05:09.965Z,9.90
2023-02-15T07:13:18.063Z,10.20
2023-02-15T07:21:23.460Z,10.40
2023-02-15T07:29:31.507Z,10.50
2023-02-15T07:37:36.977Z,10.70
2023-02-15T07:45:44.861Z,11.20
2023-02-15T07:53:52.571Z,11.80
2023-02-15T08:02:00.643Z,12.10
2023-02-15T08:10:06.070Z,11.90
2023-02-15T08:18:14.099Z,12.40
2023-02-15T08:26:20.461Z,12.90
2023-02-15T08:34:28.607Z,13.20
2023-02-15T08:42:33.965Z,13.60
2023-02-15T08:50:41.829Z,14.10
2023-02-15T08:58:47.359Z,14.50
2023-02-15T09:06:56.283Z,15.10
2023-02-15T09:15:01.684Z,15.90
2023-02-15T09:23:16.202Z,19.00
2023-02-15T09:31:29.884Z,26.00
2023-02-15T09:39:49.084Z,30.90
2023-02-15T09:48:24.030Z,33.50
2023-02-15T09:56:38.668Z,35.60
2023-02-15T10:04:55.678Z,37.20
2023-02-15T10:13:16.451Z,38.10
2023-02-15T10:21:40.504Z,39.10
2023-02-15T10:29:59.716Z,39.80
2023-02-15T10:38:17.118Z,39.60
2023-02-15T10:46:45.673Z,40.80
2023-02-15T10:54:57.937Z,37.30
2023-02-15T11:03:26.072Z,28.50
2023-02-15T11:11:36.582Z,23.30
2023-02-15T11:19:51.962Z,20.30
2023-02-15T11:27:58.392Z,18.60
2023-02-15T11:36:13.292Z,17.40
2023-02-15T11:44:23.855Z,16.60
2023-02-15T11:52:31.968Z,16.00
2023-02-15T12:00:41.567Z,14.80
2023-02-15T12:08:56.857Z,14.90
2023-02-15T12:17:02.176Z,15.00
2023-02-15T12:25:26.536Z,14.70
2023-02-15T12:33:35.568Z,14.50
2023-02-15T12:41:49.660Z,14.40
2023-02-15T12:50:17.975Z,14.40
2023-02-15T12:58:27.771Z,14.00
2023-02-15T13:06:35.997Z,13.60
2023-02-15T13:14:49.412Z,13.70
2023-02-15T13:22:59.262Z,14.00
2023-02-15T13:31:07.706Z,13.70
2023-02-15T13:39:23.527Z,13.80
2023-02-15T13:47:38.553Z,13.70
2023-02-15T13:55:51.816Z,13.80
2023-02-15T14:04:23.253Z,13.50
2023-02-15T14:12:44.698Z,13.40
2023-02-15T14:21:05.701Z,13.30
2023-02-15T14:29:20.511Z,13.20
2023-02-15T14:37:37.302Z,13.10
2023-02-15T14:45:50.558Z,12.90
2023-02-15T14:53:58.536Z,12.80
2023-02-15T15:02:16.279Z,12.80
2023-02-15T15:10:42.332Z,12.70
2023-02-15T15:18:50.289Z,12.60
2023-02-15T15:27:33.376Z,12.30
2023-02-15T15:35:40.988Z,12.30
2023-02-15T15:44:20.860Z,12.10
2023-02-15T15:52:27.217Z,11.90
2023-02-15T16:00:40.849Z,11.80
2023-02-15T16:08:46.286Z,11.60
2023-02-15T16:16:58.781Z,11.40
2023-02-15T16:25:21.677Z,11.30
2023-02-15T16:33:40.224Z,11.10
2023-02-15T16:41:47.208Z,11.00
2023-02-15T16:49:57.751Z,10.50
2023-02-15T16:58:06.584Z,10.90
2023-02-15T17:06:26.844Z,10.70
2023-02-15T17:14:34.086Z,10.60
2023-02-15T17:22:44.335Z,10.40
2023-02-15T17:30:50.622Z,10.20
2023-02-15T17:39:12.313Z,10.00
2023-02-15T17:47:22.813Z,9.90
2023-02-15T17:55:43.264Z,9.60
2023-02-15T18:04:02.796Z,9.30
2023-02-15T18:12:23.750Z,9.50
2023-02-15T18:20:36.236Z,9.20
2023-02-15T18:28:44.538Z,9.10
2023-02-15T18:36:50.155Z,9.00
2023-02-15T18:45:00.771Z,9.00
2023-02-15T18:53:10.232Z,8.90
2023-02-15T19:01:21.660Z,8.80
2023-02-15T19:09:29.589Z,8.80
2023-02-15T19:17:40.306Z,8.60
2023-02-15T19:25:45.962Z,8.60
2023-02-15T19:33:54.048Z,8.40
2023-02-15T19:41:59.609Z,8.30
2023-02-15T19:50:08.003Z,8.30
2023-02-15T19:58:15.895Z,8.20
2023-02-15T20:06:24.300Z,8.20
2023-02-15T20:14:30.325Z,8.10
2023-02-15T20:22:38.336Z,8.10
2023-02-15T20:30:44.268Z,8.30
2023-02-15T20:38:52.878Z,7.70
2023-02-15T20:47:02.728Z,7.90
2023-02-15T20:55:18.704Z,7.80
2023-02-15T21:03:31.628Z,7.70
2023-02-15T21:11:40.750Z,7.60
2023-02-15T21:19:46.573Z,7.50
2023-02-15T21:27:54.653Z,7.40
2023-02-15T21:36:00.969Z,7.30
2023-02-15T21:44:31.384Z,7.30
2023-02-15T21:52:36.921Z,7.30
2023-02-15T22:00:44.948Z,7.40
2023-02-15T22:08:50.816Z,7.30
2023-02-15T22:16:58.840Z,7.20
2023-02-15T22:25:04.937Z,7.20
2023-02-15T22:33:23.317Z,6.90
2023-02-15T22:41:32.844Z,6.70
2023-02-15T22:49:40.969Z,6.60
2023-02-15T22:57:47.345Z,6.30
2023-02-15T23:05:55.944Z,6.50
2023-02-15T23:14:03.141Z,6.60
2023-02-15T23:22:14.863Z,6.50
2023-02-15T23:30:20.667Z,6.00
2023-02-15T23:38:31.267Z,5.50
2023-02-15T23:46:42.341Z,5.50
2023-02-15T23:54:50.244Z,5.60
